KSDF/SDF METAR and TAF weather

Enter ICAO airport designator
Station Type Date Time Source
KSDF METAR 2020/01/17 21:56 UTC NOAA

KSDF 172156Z 10014G18KT 10SM FEW090 BKN110 OVC130 03/M07 A3050 RMK AO2 SLP331 VIRGA ALQDS T00281072


Station Type Date Time Source
KSDF Decoded METAR 2020/01/17 21:56 UTC NOAA

STANDIFORD FIELD, KY, United States (KSDF) 38-11N 085-44W 146M
Jan 17, 2020 - 04:56 PM EST / 2020.01.17 2156 UTC
Wind: from the E (100 degrees) at 16 MPH (14 KT) gusting to 21 MPH (18 KT):0
Visibility: 10 mile(s):0
Sky conditions: overcast
Temperature: 37.0 F (2.8 C)
Dew Point: 19.0 F (-7.2 C)
Relative Humidity: 47%
Pressure (altimeter): 30.5 in. Hg (1032 hPa)
ob: KSDF 172156Z 10014G18KT 10SM FEW090 BKN110 OVC130 03/M07 A3050 RMK AO2 SLP331 VIRGA ALQDS T00281072
cycle: 22

Station Type Date Time Source
KSDF TAF 2020/01/17 18:39 UTC NOAA

TAF KSDF 171737Z 1718/1824 10010KT P6SM BKN120
FM180600 15014KT 6SM -RA OVC080 WS020/19040KT
FM181200 19017G33KT 4SM RA OVC025 WS020/20050KT
FM181500 22016G34KT 6SM RA OVC016
FM181800 22016G34KT P6SM BKN016
FM182200 26016G26KT P6SM BKN020

Example: see airport list